sensor_id;sensor_type;location;lat;lon;timestamp;temperature;humidity
42755;DHT22;28407;51.830;5.684;2023-05-29T00:01:35;17.50;57.50
42755;DHT22;28407;51.830;5.684;2023-05-29T00:03:38;17.40;57.60
42755;DHT22;28407;51.830;5.684;2023-05-29T00:05:39;17.30;57.60
42755;DHT22;28407;51.830;5.684;2023-05-29T00:07:41;17.30;57.60
42755;DHT22;28407;51.830;5.684;2023-05-29T00:09:42;17.30;57.60
42755;DHT22;28407;51.830;5.684;2023-05-29T00:11:43;17.20;57.60
42755;DHT22;28407;51.830;5.684;2023-05-29T00:13:44;17.20;57.60
42755;DHT22;28407;51.830;5.684;2023-05-29T00:15:44;17.20;57.60
42755;DHT22;28407;51.830;5.684;2023-05-29T00:17:45;17.20;57.60
42755;DHT22;28407;51.830;5.684;2023-05-29T00:19:46;17.20;57.60
42755;DHT22;28407;51.830;5.684;2023-05-29T00:21:47;17.20;57.60
42755;DHT22;28407;51.830;5.684;2023-05-29T00:23:48;17.10;57.60
42755;DHT22;28407;51.830;5.684;2023-05-29T00:25:49;17.00;57.60
42755;DHT22;28407;51.830;5.684;2023-05-29T00:27:50;17.00;57.70
42755;DHT22;28407;51.830;5.684;2023-05-29T00:29:51;17.00;57.70
42755;DHT22;28407;51.830;5.684;2023-05-29T00:31:51;16.90;57.70
42755;DHT22;28407;51.830;5.684;2023-05-29T00:33:53;16.90;57.80
42755;DHT22;28407;51.830;5.684;2023-05-29T00:35:54;16.90;57.80
42755;DHT22;28407;51.830;5.684;2023-05-29T00:37:55;16.80;57.90
42755;DHT22;28407;51.830;5.684;2023-05-29T00:39:56;16.80;57.90
42755;DHT22;28407;51.830;5.684;2023-05-29T00:41:57;16.80;57.90
42755;DHT22;28407;51.830;5.684;2023-05-29T00:43:57;16.80;57.90
42755;DHT22;28407;51.830;5.684;2023-05-29T00:45:58;16.80;57.90
42755;DHT22;28407;51.830;5.684;2023-05-29T00:47:59;16.80;57.90
42755;DHT22;28407;51.830;5.684;2023-05-29T00:50:01;16.80;57.90
42755;DHT22;28407;51.830;5.684;2023-05-29T00:52:03;16.70;57.90
42755;DHT22;28407;51.830;5.684;2023-05-29T00:54:07;16.80;57.90
42755;DHT22;28407;51.830;5.684;2023-05-29T00:56:08;16.70;57.80
42755;DHT22;28407;51.830;5.684;2023-05-29T00:58:10;16.70;57.80
42755;DHT22;28407;51.830;5.684;2023-05-29T01:00:11;16.70;57.90
42755;DHT22;28407;51.830;5.684;2023-05-29T01:02:17;16.60;57.90
42755;DHT22;28407;51.830;5.684;2023-05-29T01:04:20;16.60;57.90
42755;DHT22;28407;51.830;5.684;2023-05-29T01:06:23;16.60;57.90
42755;DHT22;28407;51.830;5.684;2023-05-29T01:08:23;16.50;57.90
42755;DHT22;28407;51.830;5.684;2023-05-29T01:10:24;16.60;57.90
42755;DHT22;28407;51.830;5.684;2023-05-29T01:12:33;16.60;57.90
42755;DHT22;28407;51.830;5.684;2023-05-29T01:16:55;16.50;58.00
42755;DHT22;28407;51.830;5.684;2023-05-29T01:19:10;16.50;57.90
42755;DHT22;28407;51.830;5.684;2023-05-29T01:21:23;16.50;57.90
42755;DHT22;28407;51.830;5.684;2023-05-29T01:23:37;16.40;57.80
42755;DHT22;28407;51.830;5.684;2023-05-29T01:28:04;16.40;57.90
42755;DHT22;28407;51.830;5.684;2023-05-29T01:30:06;16.40;57.80
42755;DHT22;28407;51.830;5.684;2023-05-29T01:32:09;16.40;57.80
42755;DHT22;28407;51.830;5.684;2023-05-29T01:34:12;16.30;57.80
42755;DHT22;28407;51.830;5.684;2023-05-29T01:36:12;16.30;57.80
42755;DHT22;28407;51.830;5.684;2023-05-29T01:38:13;16.30;57.80
42755;DHT22;28407;51.830;5.684;2023-05-29T01:40:14;16.30;57.80
42755;DHT22;28407;51.830;5.684;2023-05-29T01:42:15;16.30;57.90
42755;DHT22;28407;51.830;5.684;2023-05-29T01:44:16;16.30;57.80
42755;DHT22;28407;51.830;5.684;2023-05-29T01:46:20;16.20;57.80
42755;DHT22;28407;51.830;5.684;2023-05-29T01:48:23;16.20;57.80
42755;DHT22;28407;51.830;5.684;2023-05-29T01:50:24;16.20;57.80
42755;DHT22;28407;51.830;5.684;2023-05-29T01:52:26;16.20;57.80
42755;DHT22;28407;51.830;5.684;2023-05-29T01:54:27;16.20;57.80
42755;DHT22;28407;51.830;5.684;2023-05-29T01:56:29;16.20;57.90
42755;DHT22;28407;51.830;5.684;2023-05-29T01:58:30;16.10;57.90
42755;DHT22;28407;51.830;5.684;2023-05-29T02:00:31;16.10;57.90
42755;DHT22;28407;51.830;5.684;2023-05-29T02:02:37;16.10;57.90
42755;DHT22;28407;51.830;5.684;2023-05-29T02:04:37;16.10;58.00
42755;DHT22;28407;51.830;5.684;2023-05-29T02:06:38;16.00;57.90
42755;DHT22;28407;51.830;5.684;2023-05-29T02:08:39;16.00;58.00
42755;DHT22;28407;51.830;5.684;2023-05-29T02:10:40;16.00;58.00
42755;DHT22;28407;51.830;5.684;2023-05-29T02:12:41;16.00;58.00
42755;DHT22;28407;51.830;5.684;2023-05-29T02:14:41;16.00;58.60
42755;DHT22;28407;51.830;5.684;2023-05-29T02:16:42;16.00;58.10
42755;DHT22;28407;51.830;5.684;2023-05-29T02:18:44;15.90;58.10
42755;DHT22;28407;51.830;5.684;2023-05-29T02:20:45;15.80;58.80
42755;DHT22;28407;51.830;5.684;2023-05-29T02:22:51;15.80;58.20
42755;DHT22;28407;51.830;5.684;2023-05-29T02:24:52;15.80;58.20
42755;DHT22;28407;51.830;5.684;2023-05-29T02:26:52;15.80;58.30
42755;DHT22;28407;51.830;5.684;2023-05-29T02:28:53;15.90;58.30
42755;DHT22;28407;51.830;5.684;2023-05-29T02:30:54;15.80;58.30
42755;DHT22;28407;51.830;5.684;2023-05-29T02:32:55;15.80;58.30
42755;DHT22;28407;51.830;5.684;2023-05-29T02:34:57;15.80;58.40
42755;DHT22;28407;51.830;5.684;2023-05-29T02:37:17;15.80;58.50
42755;DHT22;28407;51.830;5.684;2023-05-29T02:39:18;15.80;58.60
42755;DHT22;28407;51.830;5.684;2023-05-29T02:41:19;15.70;58.60
42755;DHT22;28407;51.830;5.684;2023-05-29T02:43:22;15.70;58.70
42755;DHT22;28407;51.830;5.684;2023-05-29T02:45:22;15.70;58.80
42755;DHT22;28407;51.830;5.684;2023-05-29T02:47:23;15.60;58.80
42755;DHT22;28407;51.830;5.684;2023-05-29T02:49:24;15.60;58.90
42755;DHT22;28407;51.830;5.684;2023-05-29T02:51:25;15.50;59.00
42755;DHT22;28407;51.830;5.684;2023-05-29T02:53:25;15.50;59.10
42755;DHT22;28407;51.830;5.684;2023-05-29T02:55:26;15.50;59.20
42755;DHT22;28407;51.830;5.684;2023-05-29T02:57:27;15.50;59.30
42755;DHT22;28407;51.830;5.684;2023-05-29T02:59:28;15.50;59.30
42755;DHT22;28407;51.830;5.684;2023-05-29T03:01:30;15.40;59.30
42755;DHT22;28407;51.830;5.684;2023-05-29T03:03:33;15.40;59.40
42755;DHT22;28407;51.830;5.684;2023-05-29T03:05:34;15.40;59.40
42755;DHT22;28407;51.830;5.684;2023-05-29T03:07:35;15.40;59.40
42755;DHT22;28407;51.830;5.684;2023-05-29T03:09:36;15.40;59.50
42755;DHT22;28407;51.830;5.684;2023-05-29T03:11:37;15.30;59.50
42755;DHT22;28407;51.830;5.684;2023-05-29T03:13:38;15.30;59.60
42755;DHT22;28407;51.830;5.684;2023-05-29T03:15:42;15.30;59.70
42755;DHT22;28407;51.830;5.684;2023-05-29T03:17:43;15.30;59.70
42755;DHT22;28407;51.830;5.684;2023-05-29T03:19:48;15.30;59.70
42755;DHT22;28407;51.830;5.684;2023-05-29T03:21:49;15.30;59.60
42755;DHT22;28407;51.830;5.684;2023-05-29T03:23:51;15.30;59.70
42755;DHT22;28407;51.830;5.684;2023-05-29T03:25:53;15.30;59.60
42755;DHT22;28407;51.830;5.684;2023-05-29T03:27:54;15.30;59.70
42755;DHT22;28407;51.830;5.684;2023-05-29T03:29:55;15.30;59.70
42755;DHT22;28407;51.830;5.684;2023-05-29T03:31:57;15.30;59.70
42755;DHT22;28407;51.830;5.684;2023-05-29T03:34:02;15.20;59.70
42755;DHT22;28407;51.830;5.684;2023-05-29T03:36:09;15.20;59.70
42755;DHT22;28407;51.830;5.684;2023-05-29T03:38:11;15.10;59.70
42755;DHT22;28407;51.830;5.684;2023-05-29T03:40:12;15.10;59.80
42755;DHT22;28407;51.830;5.684;2023-05-29T03:42:13;15.10;59.90
42755;DHT22;28407;51.830;5.684;2023-05-29T03:44:14;15.20;60.00
42755;DHT22;28407;51.830;5.684;2023-05-29T03:46:15;15.10;59.90
42755;DHT22;28407;51.830;5.684;2023-05-29T03:48:15;15.10;59.90
42755;DHT22;28407;51.830;5.684;2023-05-29T03:50:18;15.10;59.90
42755;DHT22;28407;51.830;5.684;2023-05-29T03:52:19;15.10;60.00
42755;DHT22;28407;51.830;5.684;2023-05-29T03:54:20;15.10;59.90
42755;DHT22;28407;51.830;5.684;2023-05-29T03:56:21;15.10;59.90
42755;DHT22;28407;51.830;5.684;2023-05-29T03:58:22;15.10;59.90
42755;DHT22;28407;51.830;5.684;2023-05-29T04:00:22;15.10;59.90
42755;DHT22;28407;51.830;5.684;2023-05-29T04:02:24;15.10;60.00
42755;DHT22;28407;51.830;5.684;2023-05-29T04:04:25;15.10;60.00
42755;DHT22;28407;51.830;5.684;2023-05-29T04:06:25;15.00;60.00
42755;DHT22;28407;51.830;5.684;2023-05-29T04:08:26;15.00;60.00
42755;DHT22;28407;51.830;5.684;2023-05-29T04:10:27;15.00;60.00
42755;DHT22;28407;51.830;5.684;2023-05-29T04:12:28;15.00;60.00
42755;DHT22;28407;51.830;5.684;2023-05-29T04:14:29;15.00;60.00
42755;DHT22;28407;51.830;5.684;2023-05-29T04:16:31;15.00;60.10
42755;DHT22;28407;51.830;5.684;2023-05-29T04:18:31;15.00;60.20
42755;DHT22;28407;51.830;5.684;2023-05-29T04:20:32;15.00;60.20
42755;DHT22;28407;51.830;5.684;2023-05-29T04:22:34;14.90;60.20
42755;DHT22;28407;51.830;5.684;2023-05-29T04:24:36;14.90;60.30
42755;DHT22;28407;51.830;5.684;2023-05-29T04:26:36;14.90;60.30
42755;DHT22;28407;51.830;5.684;2023-05-29T04:28:41;14.90;60.20
42755;DHT22;28407;51.830;5.684;2023-05-29T04:30:43;14.90;60.20
42755;DHT22;28407;51.830;5.684;2023-05-29T04:32:44;14.90;60.20
42755;DHT22;28407;51.830;5.684;2023-05-29T04:34:46;14.90;60.20
42755;DHT22;28407;51.830;5.684;2023-05-29T04:36:49;14.90;60.20
42755;DHT22;28407;51.830;5.684;2023-05-29T04:38:50;14.90;60.30
42755;DHT22;28407;51.830;5.684;2023-05-29T04:40:52;14.90;60.30
42755;DHT22;28407;51.830;5.684;2023-05-29T04:42:54;14.90;60.30
42755;DHT22;28407;51.830;5.684;2023-05-29T04:44:57;14.90;60.30
42755;DHT22;28407;51.830;5.684;2023-05-29T04:46:58;14.90;60.30
42755;DHT22;28407;51.830;5.684;2023-05-29T04:48:58;15.00;60.30
42755;DHT22;28407;51.830;5.684;2023-05-29T04:50:59;14.90;60.20
42755;DHT22;28407;51.830;5.684;2023-05-29T04:53:00;15.00;60.20
42755;DHT22;28407;51.830;5.684;2023-05-29T04:55:00;15.00;60.30
42755;DHT22;28407;51.830;5.684;2023-05-29T04:57:02;15.00;60.20
42755;DHT22;28407;51.830;5.684;2023-05-29T04:59:07;15.00;60.20
42755;DHT22;28407;51.830;5.684;2023-05-29T05:01:08;15.00;60.20
42755;DHT22;28407;51.830;5.684;2023-05-29T05:03:11;15.00;60.10
42755;DHT22;28407;51.830;5.684;2023-05-29T05:05:12;15.00;60.20
42755;DHT22;28407;51.830;5.684;2023-05-29T05:07:13;15.00;60.20
42755;DHT22;28407;51.830;5.684;2023-05-29T05:09:14;15.00;60.20
42755;DHT22;28407;51.830;5.684;2023-05-29T05:11:15;15.00;60.20
42755;DHT22;28407;51.830;5.684;2023-05-29T05:13:16;15.00;60.20
42755;DHT22;28407;51.830;5.684;2023-05-29T05:15:17;15.00;60.10
42755;DHT22;28407;51.830;5.684;2023-05-29T05:17:18;15.00;60.20
42755;DHT22;28407;51.830;5.684;2023-05-29T05:19:19;15.10;60.20
42755;DHT22;28407;51.830;5.684;2023-05-29T05:21:19;15.00;60.10
42755;DHT22;28407;51.830;5.684;2023-05-29T05:23:20;15.00;60.10
42755;DHT22;28407;51.830;5.684;2023-05-29T05:25:22;15.00;60.10
42755;DHT22;28407;51.830;5.684;2023-05-29T05:27:23;15.00;60.20
42755;DHT22;28407;51.830;5.684;2023-05-29T05:29:23;15.00;60.20
42755;DHT22;28407;51.830;5.684;2023-05-29T05:31:24;15.00;60.10
42755;DHT22;28407;51.830;5.684;2023-05-29T05:33:26;15.00;60.20
42755;DHT22;28407;51.830;5.684;2023-05-29T05:35:27;15.00;60.20
42755;DHT22;28407;51.830;5.684;2023-05-29T05:37:28;15.00;60.20
42755;DHT22;28407;51.830;5.684;2023-05-29T05:39:30;15.00;60.10
42755;DHT22;28407;51.830;5.684;2023-05-29T05:41:31;15.00;60.10
42755;DHT22;28407;51.830;5.684;2023-05-29T05:43:32;15.00;60.10
42755;DHT22;28407;51.830;5.684;2023-05-29T05:45:59;15.00;60.00
42755;DHT22;28407;51.830;5.684;2023-05-29T05:47:59;15.00;59.90
42755;DHT22;28407;51.830;5.684;2023-05-29T05:50:02;15.10;60.00
42755;DHT22;28407;51.830;5.684;2023-05-29T05:52:03;15.00;59.90
42755;DHT22;28407;51.830;5.684;2023-05-29T05:54:04;15.10;60.00
42755;DHT22;28407;51.830;5.684;2023-05-29T05:56:06;15.10;60.00
42755;DHT22;28407;51.830;5.684;2023-05-29T05:58:06;15.10;60.00
42755;DHT22;28407;51.830;5.684;2023-05-29T06:00:07;15.10;60.00
42755;DHT22;28407;51.830;5.684;2023-05-29T06:02:17;15.10;59.90
42755;DHT22;28407;51.830;5.684;2023-05-29T06:04:17;15.10;59.90
42755;DHT22;28407;51.830;5.684;2023-05-29T06:06:19;15.10;59.80
42755;DHT22;28407;51.830;5.684;2023-05-29T06:08:20;15.10;59.90
42755;DHT22;28407;51.830;5.684;2023-05-29T06:10:21;15.20;59.90
42755;DHT22;28407;51.830;5.684;2023-05-29T06:12:22;15.20;59.80
42755;DHT22;28407;51.830;5.684;2023-05-29T06:14:34;15.20;59.90
42755;DHT22;28407;51.830;5.684;2023-05-29T06:16:34;15.20;59.80
42755;DHT22;28407;51.830;5.684;2023-05-29T06:18:36;15.20;60.30
42755;DHT22;28407;51.830;5.684;2023-05-29T06:20:37;15.20;60.20
42755;DHT22;28407;51.830;5.684;2023-05-29T06:22:38;15.20;59.70
42755;DHT22;28407;51.830;5.684;2023-05-29T06:24:38;15.30;59.60
42755;DHT22;28407;51.830;5.684;2023-05-29T06:26:40;15.30;59.50
42755;DHT22;28407;51.830;5.684;2023-05-29T06:28:42;15.30;59.40
42755;DHT22;28407;51.830;5.684;2023-05-29T06:30:43;15.30;59.30
42755;DHT22;28407;51.830;5.684;2023-05-29T06:32:44;15.40;59.40
42755;DHT22;28407;51.830;5.684;2023-05-29T06:34:45;15.30;59.20
42755;DHT22;28407;51.830;5.684;2023-05-29T06:36:45;15.30;59.20
42755;DHT22;28407;51.830;5.684;2023-05-29T06:38:47;15.30;59.10
42755;DHT22;28407;51.830;5.684;2023-05-29T06:40:51;15.30;59.10
42755;DHT22;28407;51.830;5.684;2023-05-29T06:42:51;15.30;59.10
42755;DHT22;28407;51.830;5.684;2023-05-29T06:44:54;15.30;59.10
42755;DHT22;28407;51.830;5.684;2023-05-29T06:46:55;15.40;59.00
42755;DHT22;28407;51.830;5.684;2023-05-29T06:48:55;15.40;59.00
42755;DHT22;28407;51.830;5.684;2023-05-29T06:50:57;15.40;58.90
42755;DHT22;28407;51.830;5.684;2023-05-29T06:53:21;15.40;58.70
42755;DHT22;28407;51.830;5.684;2023-05-29T06:55:22;15.40;58.70
42755;DHT22;28407;51.830;5.684;2023-05-29T06:57:23;15.40;58.70
42755;DHT22;28407;51.830;5.684;2023-05-29T06:59:24;15.30;58.70
42755;DHT22;28407;51.830;5.684;2023-05-29T07:01:24;15.30;58.80
42755;DHT22;28407;51.830;5.684;2023-05-29T07:03:32;15.30;58.70
42755;DHT22;28407;51.830;5.684;2023-05-29T07:05:36;15.30;58.70
42755;DHT22;28407;51.830;5.684;2023-05-29T07:07:36;15.40;58.80
42755;DHT22;28407;51.830;5.684;2023-05-29T07:09:37;15.40;58.70
42755;DHT22;28407;51.830;5.684;2023-05-29T07:11:39;15.40;58.70
42755;DHT22;28407;51.830;5.684;2023-05-29T07:13:40;15.50;58.60
42755;DHT22;28407;51.830;5.684;2023-05-29T07:15:41;15.50;58.50
42755;DHT22;28407;51.830;5.684;2023-05-29T07:17:42;15.60;58.50
42755;DHT22;28407;51.830;5.684;2023-05-29T07:19:52;15.60;58.40
42755;DHT22;28407;51.830;5.684;2023-05-29T07:21:54;15.60;58.30
42755;DHT22;28407;51.830;5.684;2023-05-29T07:23:57;15.70;58.30
42755;DHT22;28407;51.830;5.684;2023-05-29T07:25:57;15.70;58.10
42755;DHT22;28407;51.830;5.684;2023-05-29T07:28:01;15.70;58.00
42755;DHT22;28407;51.830;5.684;2023-05-29T07:30:02;15.80;57.90
42755;DHT22;28407;51.830;5.684;2023-05-29T07:32:03;15.80;57.80
42755;DHT22;28407;51.830;5.684;2023-05-29T07:34:05;15.80;57.70
42755;DHT22;28407;51.830;5.684;2023-05-29T07:36:06;15.80;57.60
42755;DHT22;28407;51.830;5.684;2023-05-29T07:38:06;15.80;57.60
42755;DHT22;28407;51.830;5.684;2023-05-29T07:40:08;15.80;57.60
42755;DHT22;28407;51.830;5.684;2023-05-29T07:42:27;15.90;57.60
42755;DHT22;28407;51.830;5.684;2023-05-29T07:44:28;15.90;57.60
42755;DHT22;28407;51.830;5.684;2023-05-29T07:46:29;16.00;57.50
42755;DHT22;28407;51.830;5.684;2023-05-29T07:48:46;16.00;57.30
42755;DHT22;28407;51.830;5.684;2023-05-29T07:50:47;16.10;57.20
42755;DHT22;28407;51.830;5.684;2023-05-29T07:52:49;16.10;57.10
42755;DHT22;28407;51.830;5.684;2023-05-29T07:54:52;16.10;57.00
42755;DHT22;28407;51.830;5.684;2023-05-29T07:56:53;16.10;56.90
42755;DHT22;28407;51.830;5.684;2023-05-29T07:58:54;16.20;56.80
42755;DHT22;28407;51.830;5.684;2023-05-29T08:00:55;16.20;56.70
42755;DHT22;28407;51.830;5.684;2023-05-29T08:02:57;16.30;56.70
42755;DHT22;28407;51.830;5.684;2023-05-29T08:05:16;16.30;56.60
42755;DHT22;28407;51.830;5.684;2023-05-29T08:07:17;16.40;56.50
42755;DHT22;28407;51.830;5.684;2023-05-29T08:09:18;16.40;56.40
42755;DHT22;28407;51.830;5.684;2023-05-29T08:11:19;16.40;56.30
42755;DHT22;28407;51.830;5.684;2023-05-29T08:13:20;16.50;56.30
42755;DHT22;28407;51.830;5.684;2023-05-29T08:15:21;16.40;56.20
42755;DHT22;28407;51.830;5.684;2023-05-29T08:17:24;16.50;56.20
42755;DHT22;28407;51.830;5.684;2023-05-29T08:19:25;16.50;56.10
42755;DHT22;28407;51.830;5.684;2023-05-29T08:21:25;16.50;56.00
42755;DHT22;28407;51.830;5.684;2023-05-29T08:23:26;16.60;56.00
42755;DHT22;28407;51.830;5.684;2023-05-29T08:25:27;16.60;55.90
42755;DHT22;28407;51.830;5.684;2023-05-29T08:27:28;16.60;55.80
42755;DHT22;28407;51.830;5.684;2023-05-29T08:29:29;16.70;55.80
42755;DHT22;28407;51.830;5.684;2023-05-29T08:31:30;16.70;55.80
42755;DHT22;28407;51.830;5.684;2023-05-29T08:33:31;16.70;55.70
42755;DHT22;28407;51.830;5.684;2023-05-29T08:35:33;16.80;55.70
42755;DHT22;28407;51.830;5.684;2023-05-29T08:37:33;16.80;55.60
42755;DHT22;28407;51.830;5.684;2023-05-29T08:39:34;16.90;55.50
42755;DHT22;28407;51.830;5.684;2023-05-29T08:43:42;17.00;55.30
42755;DHT22;28407;51.830;5.684;2023-05-29T08:45:44;17.00;55.30
42755;DHT22;28407;51.830;5.684;2023-05-29T08:47:46;17.10;55.30
42755;DHT22;28407;51.830;5.684;2023-05-29T08:49:52;17.10;55.20
42755;DHT22;28407;51.830;5.684;2023-05-29T08:52:02;17.10;55.10
42755;DHT22;28407;51.830;5.684;2023-05-29T08:54:04;17.10;55.00
42755;DHT22;28407;51.830;5.684;2023-05-29T08:56:06;17.20;54.90
42755;DHT22;28407;51.830;5.684;2023-05-29T08:58:08;17.20;54.90
42755;DHT22;28407;51.830;5.684;2023-05-29T09:00:11;17.20;54.90
42755;DHT22;28407;51.830;5.684;2023-05-29T09:02:13;17.20;55.40
42755;DHT22;28407;51.830;5.684;2023-05-29T09:04:15;17.20;54.80
42755;DHT22;28407;51.830;5.684;2023-05-29T09:06:16;17.30;54.80
42755;DHT22;28407;51.830;5.684;2023-05-29T09:08:17;17.30;54.70
42755;DHT22;28407;51.830;5.684;2023-05-29T09:10:19;17.40;54.60
42755;DHT22;28407;51.830;5.684;2023-05-29T09:12:20;17.40;54.50
42755;DHT22;28407;51.830;5.684;2023-05-29T09:14:35;17.40;54.50
42755;DHT22;28407;51.830;5.684;2023-05-29T09:16:41;17.50;54.40
42755;DHT22;28407;51.830;5.684;2023-05-29T09:18:43;17.50;54.20
42755;DHT22;28407;51.830;5.684;2023-05-29T09:20:46;17.60;54.20
42755;DHT22;28407;51.830;5.684;2023-05-29T09:23:00;17.70;54.10
42755;DHT22;28407;51.830;5.684;2023-05-29T09:25:01;17.70;54.00
42755;DHT22;28407;51.830;5.684;2023-05-29T09:27:02;17.70;53.90
42755;DHT22;28407;51.830;5.684;2023-05-29T09:29:04;17.70;53.80
42755;DHT22;28407;51.830;5.684;2023-05-29T09:31:16;17.80;53.80
42755;DHT22;28407;51.830;5.684;2023-05-29T09:33:17;17.90;53.70
42755;DHT22;28407;51.830;5.684;2023-05-29T09:35:19;17.90;53.60
42755;DHT22;28407;51.830;5.684;2023-05-29T09:37:20;18.00;53.60
42755;DHT22;28407;51.830;5.684;2023-05-29T09:39:22;18.00;53.60
42755;DHT22;28407;51.830;5.684;2023-05-29T09:41:23;18.10;53.60
42755;DHT22;28407;51.830;5.684;2023-05-29T09:43:24;18.10;53.50
42755;DHT22;28407;51.830;5.684;2023-05-29T09:45:25;18.20;53.40
42755;DHT22;28407;51.830;5.684;2023-05-29T09:47:33;18.20;53.30
42755;DHT22;28407;51.830;5.684;2023-05-29T09:49:34;18.30;53.20
42755;DHT22;28407;51.830;5.684;2023-05-29T09:51:36;18.30;53.10
42755;DHT22;28407;51.830;5.684;2023-05-29T09:53:39;18.30;53.00
42755;DHT22;28407;51.830;5.684;2023-05-29T09:55:43;18.40;53.00
42755;DHT22;28407;51.830;5.684;2023-05-29T09:57:46;18.40;52.90
42755;DHT22;28407;51.830;5.684;2023-05-29T09:59:49;18.50;52.80
42755;DHT22;28407;51.830;5.684;2023-05-29T10:02:01;18.60;52.70
42755;DHT22;28407;51.830;5.684;2023-05-29T10:04:04;18.60;52.50
42755;DHT22;28407;51.830;5.684;2023-05-29T10:06:06;18.70;52.50
42755;DHT22;28407;51.830;5.684;2023-05-29T10:08:13;18.70;52.30
42755;DHT22;28407;51.830;5.684;2023-05-29T10:10:14;18.80;52.20
42755;DHT22;28407;51.830;5.684;2023-05-29T10:12:15;18.90;52.20
42755;DHT22;28407;51.830;5.684;2023-05-29T10:14:20;18.90;52.00
42755;DHT22;28407;51.830;5.684;2023-05-29T10:16:24;19.00;52.00
42755;DHT22;28407;51.830;5.684;2023-05-29T10:18:30;19.10;51.80
42755;DHT22;28407;51.830;5.684;2023-05-29T10:20:33;19.10;51.80
42755;DHT22;28407;51.830;5.684;2023-05-29T10:22:39;19.10;51.70
42755;DHT22;28407;51.830;5.684;2023-05-29T10:24:41;19.20;51.60
42755;DHT22;28407;51.830;5.684;2023-05-29T10:26:43;19.30;51.50
42755;DHT22;28407;51.830;5.684;2023-05-29T10:28:52;19.30;51.40
42755;DHT22;28407;51.830;5.684;2023-05-29T10:31:01;19.30;51.30
42755;DHT22;28407;51.830;5.684;2023-05-29T10:33:33;19.40;51.40
42755;DHT22;28407;51.830;5.684;2023-05-29T10:35:55;19.40;51.10
42755;DHT22;28407;51.830;5.684;2023-05-29T10:38:10;19.40;51.10
42755;DHT22;28407;51.830;5.684;2023-05-29T10:40:11;19.50;51.00
42755;DHT22;28407;51.830;5.684;2023-05-29T10:42:41;19.60;51.10
42755;DHT22;28407;51.830;5.684;2023-05-29T10:44:43;19.70;51.10
42755;DHT22;28407;51.830;5.684;2023-05-29T10:48:50;19.80;50.80
42755;DHT22;28407;51.830;5.684;2023-05-29T10:50:51;19.90;50.70
42755;DHT22;28407;51.830;5.684;2023-05-29T10:52:52;20.00;50.60
42755;DHT22;28407;51.830;5.684;2023-05-29T10:54:54;20.10;50.50
42755;DHT22;28407;51.830;5.684;2023-05-29T10:56:57;20.10;50.20
42755;DHT22;28407;51.830;5.684;2023-05-29T10:58:59;20.30;50.10
42755;DHT22;28407;51.830;5.684;2023-05-29T11:01:02;20.40;50.60
42755;DHT22;28407;51.830;5.684;2023-05-29T11:03:04;20.40;49.70
42755;DHT22;28407;51.830;5.684;2023-05-29T11:05:31;20.40;49.50
42755;DHT22;28407;51.830;5.684;2023-05-29T11:07:35;20.50;49.40
42755;DHT22;28407;51.830;5.684;2023-05-29T11:09:37;20.50;49.30
42755;DHT22;28407;51.830;5.684;2023-05-29T11:11:38;20.60;49.20
42755;DHT22;28407;51.830;5.684;2023-05-29T11:13:52;20.60;49.00
42755;DHT22;28407;51.830;5.684;2023-05-29T11:16:19;20.60;48.60
42755;DHT22;28407;51.830;5.684;2023-05-29T11:18:20;20.60;48.50
42755;DHT22;28407;51.830;5.684;2023-05-29T11:20:37;20.70;48.60
42755;DHT22;28407;51.830;5.684;2023-05-29T11:23:03;20.80;48.40
42755;DHT22;28407;51.830;5.684;2023-05-29T11:25:04;20.80;48.10
42755;DHT22;28407;51.830;5.684;2023-05-29T11:27:06;20.80;48.10
42755;DHT22;28407;51.830;5.684;2023-05-29T11:29:08;20.90;48.00
42755;DHT22;28407;51.830;5.684;2023-05-29T11:31:12;20.90;47.90
42755;DHT22;28407;51.830;5.684;2023-05-29T11:33:26;21.00;47.60
42755;DHT22;28407;51.830;5.684;2023-05-29T11:35:29;21.00;47.40
42755;DHT22;28407;51.830;5.684;2023-05-29T11:37:30;21.00;47.40
42755;DHT22;28407;51.830;5.684;2023-05-29T11:39:41;21.00;47.20
42755;DHT22;28407;51.830;5.684;2023-05-29T11:41:42;21.00;47.20
42755;DHT22;28407;51.830;5.684;2023-05-29T11:43:43;21.00;47.20
42755;DHT22;28407;51.830;5.684;2023-05-29T11:45:44;21.10;47.10
42755;DHT22;28407;51.830;5.684;2023-05-29T11:47:51;21.10;46.80
42755;DHT22;28407;51.830;5.684;2023-05-29T11:49:52;21.20;46.60
42755;DHT22;28407;51.830;5.684;2023-05-29T11:51:53;21.20;46.50
42755;DHT22;28407;51.830;5.684;2023-05-29T11:53:53;21.30;46.40
42755;DHT22;28407;51.830;5.684;2023-05-29T11:56:08;21.40;46.40
42755;DHT22;28407;51.830;5.684;2023-05-29T11:58:10;21.50;46.20
42755;DHT22;28407;51.830;5.684;2023-05-29T12:00:18;21.50;46.00
42755;DHT22;28407;51.830;5.684;2023-05-29T12:02:19;21.50;45.90
42755;DHT22;28407;51.830;5.684;2023-05-29T12:04:20;21.50;45.90
42755;DHT22;28407;51.830;5.684;2023-05-29T12:06:31;21.50;45.90
42755;DHT22;28407;51.830;5.684;2023-05-29T12:08:33;21.60;45.90
42755;DHT22;28407;51.830;5.684;2023-05-29T12:10:33;21.60;45.90
42755;DHT22;28407;51.830;5.684;2023-05-29T12:12:34;21.60;45.80
42755;DHT22;28407;51.830;5.684;2023-05-29T12:14:36;21.70;45.70
42755;DHT22;28407;51.830;5.684;2023-05-29T12:16:36;21.70;45.50
42755;DHT22;28407;51.830;5.684;2023-05-29T12:18:37;21.80;45.50
42755;DHT22;28407;51.830;5.684;2023-05-29T12:20:38;21.80;45.30
42755;DHT22;28407;51.830;5.684;2023-05-29T12:22:41;21.90;45.20
42755;DHT22;28407;51.830;5.684;2023-05-29T12:24:42;21.90;44.80
42755;DHT22;28407;51.830;5.684;2023-05-29T12:26:43;22.00;44.90
42755;DHT22;28407;51.830;5.684;2023-05-29T12:28:44;22.00;44.90
42755;DHT22;28407;51.830;5.684;2023-05-29T12:30:45;22.00;44.80
42755;DHT22;28407;51.830;5.684;2023-05-29T12:32:51;22.00;44.70
42755;DHT22;28407;51.830;5.684;2023-05-29T12:34:53;22.10;44.70
42755;DHT22;28407;51.830;5.684;2023-05-29T12:36:53;22.00;44.60
42755;DHT22;28407;51.830;5.684;2023-05-29T12:38:54;22.10;44.60
42755;DHT22;28407;51.830;5.684;2023-05-29T12:40:56;22.10;44.50
42755;DHT22;28407;51.830;5.684;2023-05-29T12:43:01;22.20;44.30
42755;DHT22;28407;51.830;5.684;2023-05-29T12:45:03;22.30;44.20
42755;DHT22;28407;51.830;5.684;2023-05-29T12:47:04;22.40;44.00
42755;DHT22;28407;51.830;5.684;2023-05-29T12:49:16;22.40;43.80
42755;DHT22;28407;51.830;5.684;2023-05-29T12:51:24;22.50;43.70
42755;DHT22;28407;51.830;5.684;2023-05-29T12:53:28;22.50;43.50
42755;DHT22;28407;51.830;5.684;2023-05-29T12:55:34;22.60;43.50
42755;DHT22;28407;51.830;5.684;2023-05-29T12:57:37;22.60;43.50
42755;DHT22;28407;51.830;5.684;2023-05-29T12:59:37;22.70;43.60
42755;DHT22;28407;51.830;5.684;2023-05-29T13:01:38;22.70;43.60
42755;DHT22;28407;51.830;5.684;2023-05-29T13:03:39;22.80;43.60
42755;DHT22;28407;51.830;5.684;2023-05-29T13:05:40;22.80;43.50